sensor_id;sensor_type;location;lat;lon;timestamp;pressure;altitude;pressure_sealevel;temperature;humidity
7180;BME280;3631;42.152;24.756;2024-03-23T00:51:06;86199.66;;;-144.30;62.98
7180;BME280;3631;42.152;24.756;2024-03-23T00:53:34;86195.69;;;-144.30;62.95
7180;BME280;3631;42.152;24.756;2024-03-23T00:56:00;86243.41;;;-144.30;62.65
7180;BME280;3631;42.152;24.756;2024-03-23T00:58:27;86157.91;;;-144.30;62.84
7180;BME280;3631;42.152;24.756;2024-03-23T01:00:53;86195.69;;;-144.30;62.81
7180;BME280;3631;42.152;24.756;2024-03-23T01:03:19;86197.66;;;-144.30;62.63
7180;BME280;3631;42.152;24.756;2024-03-23T01:05:46;86201.66;;;-144.30;61.96
7180;BME280;3631;42.152;24.756;2024-03-23T01:08:15;86211.59;;;-144.30;61.83
7180;BME280;3631;42.152;24.756;2024-03-23T01:10:41;86207.59;;;-144.30;61.32
7180;BME280;3631;42.152;24.756;2024-03-23T01:13:08;86181.75;;;-144.30;61.30
7180;BME280;3631;42.152;24.756;2024-03-23T01:15:34;86201.66;;;-144.30;62.04
7180;BME280;3631;42.152;24.756;2024-03-23T01:18:01;86187.72;;;-144.30;62.13
7180;BME280;3631;42.152;24.756;2024-03-23T01:20:27;86219.53;;;-144.30;63.18
7180;BME280;3631;42.152;24.756;2024-03-23T01:22:54;86179.78;;;-144.30;63.03
7180;BME280;3631;42.152;24.756;2024-03-23T01:25:22;86199.66;;;-144.30;63.31
7180;BME280;3631;42.152;24.756;2024-03-23T01:27:48;86211.59;;;-144.30;62.73
7180;BME280;3631;42.152;24.756;2024-03-23T01:30:15;86225.50;;;-144.30;62.95
7180;BME280;3631;42.152;24.756;2024-03-23T01:32:41;86221.53;;;-144.30;63.31
7180;BME280;3631;42.152;24.756;2024-03-23T01:35:08;86215.56;;;-144.30;63.19
7180;BME280;3631;42.152;24.756;2024-03-23T01:37:35;86207.59;;;-144.30;63.53
7180;BME280;3631;42.152;24.756;2024-03-23T01:40:01;86223.50;;;-144.30;63.26
7180;BME280;3631;42.152;24.756;2024-03-23T01:42:31;86191.69;;;-144.30;61.83
7180;BME280;3631;42.152;24.756;2024-03-23T01:44:57;86193.69;;;-144.30;62.64
7180;BME280;3631;42.152;24.756;2024-03-23T01:47:23;86267.25;;;-144.30;63.43
7180;BME280;3631;42.152;24.756;2024-03-23T01:49:49;86227.50;;;-144.30;64.36
7180;BME280;3631;42.152;24.756;2024-03-23T01:52:17;86263.28;;;-144.30;63.98
7180;BME280;3631;42.152;24.756;2024-03-23T01:54:43;86259.31;;;-144.30;64.04
7180;BME280;3631;42.152;24.756;2024-03-23T01:57:11;86223.50;;;-144.30;64.34
7180;BME280;3631;42.152;24.756;2024-03-23T01:59:40;86277.19;;;-144.30;65.05
7180;BME280;3631;42.152;24.756;2024-03-23T02:02:07;86177.78;;;-144.30;65.57
7180;BME280;3631;42.152;24.756;2024-03-23T02:04:32;86283.16;;;-144.30;65.70
7180;BME280;3631;42.152;24.756;2024-03-23T02:06:59;86255.34;;;-144.30;66.05
7180;BME280;3631;42.152;24.756;2024-03-23T02:09:25;86245.38;;;-144.30;66.19
7180;BME280;3631;42.152;24.756;2024-03-23T02:11:52;86261.28;;;-144.30;65.78
7180;BME280;3631;42.152;24.756;2024-03-23T02:14:18;86227.50;;;-144.30;65.78
7180;BME280;3631;42.152;24.756;2024-03-23T02:16:46;86251.34;;;-144.30;65.53
7180;BME280;3631;42.152;24.756;2024-03-23T02:19:12;86249.38;;;-144.30;65.90
7180;BME280;3631;42.152;24.756;2024-03-23T02:21:39;86263.28;;;-144.30;65.90
7180;BME280;3631;42.152;24.756;2024-03-23T02:24:07;86255.34;;;-144.30;65.81
7180;BME280;3631;42.152;24.756;2024-03-23T02:26:34;86257.31;;;-144.30;66.13
7180;BME280;3631;42.152;24.756;2024-03-23T02:28:59;86209.59;;;-144.30;66.03
7180;BME280;3631;42.152;24.756;2024-03-23T02:31:26;86281.19;;;-144.30;66.41
7180;BME280;3631;42.152;24.756;2024-03-23T02:33:52;86247.38;;;-144.30;66.37
7180;BME280;3631;42.152;24.756;2024-03-23T02:36:19;86267.25;;;-144.30;66.39
7180;BME280;3631;42.152;24.756;2024-03-23T02:38:46;86245.38;;;-144.30;66.64
7180;BME280;3631;42.152;24.756;2024-03-23T02:41:15;86231.47;;;-144.30;65.74
7180;BME280;3631;42.152;24.756;2024-03-23T02:43:48;86275.22;;;-144.30;65.84
7180;BME280;3631;42.152;24.756;2024-03-23T02:46:15;86265.28;;;-144.30;66.94
7180;BME280;3631;42.152;24.756;2024-03-23T02:48:41;86279.19;;;-144.30;67.09
7180;BME280;3631;42.152;24.756;2024-03-23T02:51:08;86257.31;;;-144.30;66.80
7180;BME280;3631;42.152;24.756;2024-03-23T02:53:34;86279.19;;;-144.30;66.95
7180;BME280;3631;42.152;24.756;2024-03-23T02:56:01;86267.25;;;-144.30;67.23
7180;BME280;3631;42.152;24.756;2024-03-23T02:58:29;86287.16;;;-144.30;66.80
7180;BME280;3631;42.152;24.756;2024-03-23T03:00:56;87013.00;;;-144.30;67.17
7180;BME280;3631;42.152;24.756;2024-03-23T03:03:21;86247.38;;;-144.30;67.33
7180;BME280;3631;42.152;24.756;2024-03-23T03:05:55;86295.09;;;-144.30;67.78
7180;BME280;3631;42.152;24.756;2024-03-23T03:08:20;86255.34;;;-144.30;68.55
7180;BME280;3631;42.152;24.756;2024-03-23T03:10:47;86291.13;;;-144.30;69.63
7180;BME280;3631;42.152;24.756;2024-03-23T03:13:13;86301.06;;;-144.30;70.21
7180;BME280;3631;42.152;24.756;2024-03-23T03:15:42;86257.31;;;-144.30;70.36
7180;BME280;3631;42.152;24.756;2024-03-23T03:18:08;86283.16;;;-144.30;69.66
7180;BME280;3631;42.152;24.756;2024-03-23T03:20:37;86281.19;;;-144.30;68.34
7180;BME280;3631;42.152;24.756;2024-03-23T03:23:04;86271.25;;;-144.30;68.83
7180;BME280;3631;42.152;24.756;2024-03-23T03:25:31;86299.06;;;-144.30;68.56
7180;BME280;3631;42.152;24.756;2024-03-23T03:27:57;86291.13;;;-144.30;68.44
7180;BME280;3631;42.152;24.756;2024-03-23T03:30:24;86299.06;;;-144.30;69.68
7180;BME280;3631;42.152;24.756;2024-03-23T03:32:53;86084.34;;;-144.30;70.44
7180;BME280;3631;42.152;24.756;2024-03-23T03:35:20;86273.22;;;-144.30;71.21
7180;BME280;3631;42.152;24.756;2024-03-23T03:37:46;86305.03;;;-144.30;71.47
7180;BME280;3631;42.152;24.756;2024-03-23T03:40:13;86330.88;;;-144.30;72.61
7180;BME280;3631;42.152;24.756;2024-03-23T03:42:40;86489.97;;;-144.30;71.82
7180;BME280;3631;42.152;24.756;2024-03-23T03:45:07;86316.97;;;-144.30;72.71
7180;BME280;3631;42.152;24.756;2024-03-23T03:47:33;86289.13;;;-144.30;72.59
7180;BME280;3631;42.152;24.756;2024-03-23T03:50:02;86277.19;;;-144.30;72.54
7180;BME280;3631;42.152;24.756;2024-03-23T03:52:27;86322.94;;;-144.30;72.27
7180;BME280;3631;42.152;24.756;2024-03-23T03:55:02;86318.97;;;-144.30;72.18
7180;BME280;3631;42.152;24.756;2024-03-23T03:57:28;86249.38;;;-144.30;72.54
7180;BME280;3631;42.152;24.756;2024-03-23T03:59:55;86299.06;;;-144.30;72.43
7180;BME280;3631;42.152;24.756;2024-03-23T04:02:20;86324.94;;;-144.30;73.30
7180;BME280;3631;42.152;24.756;2024-03-23T04:04:47;86322.94;;;-144.30;72.13
7180;BME280;3631;42.152;24.756;2024-03-23T04:07:15;86227.50;;;-144.30;71.55
7180;BME280;3631;42.152;24.756;2024-03-23T04:09:43;86322.94;;;-144.30;71.57
7180;BME280;3631;42.152;24.756;2024-03-23T04:12:09;86318.97;;;-144.30;71.55
7180;BME280;3631;42.152;24.756;2024-03-23T04:14:36;86324.94;;;-144.30;71.16
7180;BME280;3631;42.152;24.756;2024-03-23T04:17:02;86322.94;;;-144.30;70.63
7180;BME280;3631;42.152;24.756;2024-03-23T04:19:29;86346.81;;;-144.30;69.99
7180;BME280;3631;42.152;24.756;2024-03-23T04:21:55;86752.47;;;-144.30;69.64
7180;BME280;3631;42.152;24.756;2024-03-23T04:24:23;86374.63;;;-144.30;69.17
7180;BME280;3631;42.152;24.756;2024-03-23T04:26:50;86330.88;;;-144.30;68.57
7180;BME280;3631;42.152;24.756;2024-03-23T04:29:17;86356.75;;;-144.30;68.19
7180;BME280;3631;42.152;24.756;2024-03-23T04:31:43;85895.44;;;-144.30;67.33
7180;BME280;3631;42.152;24.756;2024-03-23T04:34:10;86311.00;;;-144.30;67.44
7180;BME280;3631;42.152;24.756;2024-03-23T04:36:36;86358.72;;;-144.30;66.89
7180;BME280;3631;42.152;24.756;2024-03-23T04:39:03;86754.47;;;-144.30;67.06
7180;BME280;3631;42.152;24.756;2024-03-23T04:41:31;86314.97;;;-144.30;66.52
7180;BME280;3631;42.152;24.756;2024-03-23T04:43:58;86299.06;;;-144.30;66.66
7180;BME280;3631;42.152;24.756;2024-03-23T04:46:25;86318.97;;;-144.30;66.56
7180;BME280;3631;42.152;24.756;2024-03-23T04:48:52;86378.63;;;-144.30;67.25
7180;BME280;3631;42.152;24.756;2024-03-23T04:51:22;86368.66;;;-144.30;67.30
7180;BME280;3631;42.152;24.756;2024-03-23T04:53:49;86348.78;;;-144.30;67.96
7180;BME280;3631;42.152;24.756;2024-03-23T04:56:17;86344.81;;;-144.30;68.04
7180;BME280;3631;42.152;24.756;2024-03-23T04:58:45;86338.84;;;-144.30;67.72
7180;BME280;3631;42.152;24.756;2024-03-23T05:01:11;86330.88;;;-144.30;67.48
7180;BME280;3631;42.152;24.756;2024-03-23T05:03:38;86346.81;;;-144.30;67.26
7180;BME280;3631;42.152;24.756;2024-03-23T05:06:04;86364.69;;;-144.30;67.31
7180;BME280;3631;42.152;24.756;2024-03-23T05:08:31;86324.94;;;-144.30;67.11
7180;BME280;3631;42.152;24.756;2024-03-23T05:10:57;86261.28;;;-144.30;66.87
7180;BME280;3631;42.152;24.756;2024-03-23T05:13:24;86352.75;;;-144.30;66.87
7180;BME280;3631;42.152;24.756;2024-03-23T05:15:54;86338.84;;;-144.30;66.39
7180;BME280;3631;42.152;24.756;2024-03-23T05:18:20;86305.03;;;-144.30;65.81
7180;BME280;3631;42.152;24.756;2024-03-23T05:20:47;86307.03;;;-144.30;65.12
7180;BME280;3631;42.152;24.756;2024-03-23T05:23:13;86295.09;;;-144.30;64.57
7180;BME280;3631;42.152;24.756;2024-03-23T05:25:41;86239.44;;;-144.30;64.15
7180;BME280;3631;42.152;24.756;2024-03-23T05:28:06;86153.91;;;-144.30;60.61
7180;BME280;3631;42.152;24.756;2024-03-23T05:30:33;86060.47;;;-144.30;53.92
7180;BME280;3631;42.152;24.756;2024-03-23T05:33:01;85873.56;;;-144.30;48.56
7180;BME280;3631;42.152;24.756;2024-03-23T05:35:27;85802.00;;;-144.30;44.77
7180;BME280;3631;42.152;24.756;2024-03-23T05:37:53;85686.69;;;-144.30;42.83
7180;BME280;3631;42.152;24.756;2024-03-23T05:40:20;85615.13;;;-144.30;40.65
7180;BME280;3631;42.152;24.756;2024-03-23T05:42:46;85513.72;;;-144.30;38.72
7180;BME280;3631;42.152;24.756;2024-03-23T05:45:13;85414.31;;;-144.30;37.50
7180;BME280;3631;42.152;24.756;2024-03-23T05:47:39;85320.91;;;-144.30;36.09
7180;BME280;3631;42.152;24.756;2024-03-23T05:50:08;85217.53;;;-144.30;34.81
7180;BME280;3631;42.152;24.756;2024-03-23T05:52:36;85084.34;;;-144.30;33.66
7180;BME280;3631;42.152;24.756;2024-03-23T05:55:03;84990.91;;;-144.30;32.04
7180;BME280;3631;42.152;24.756;2024-03-23T05:57:29;84887.56;;;-144.30;31.36
7180;BME280;3631;42.152;24.756;2024-03-23T05:59:57;84875.63;;;-144.30;30.95
7180;BME280;3631;42.152;24.756;2024-03-23T06:02:23;84804.06;;;-144.30;30.37
7180;BME280;3631;42.152;24.756;2024-03-23T06:04:50;84708.66;;;-144.30;29.70
7180;BME280;3631;42.152;24.756;2024-03-23T06:07:17;84585.44;;;-144.30;29.00
7180;BME280;3631;42.152;24.756;2024-03-23T06:09:44;84597.38;;;-144.30;28.59
7180;BME280;3631;42.152;24.756;2024-03-23T06:12:10;84531.78;;;-144.30;28.25
7180;BME280;3631;42.152;24.756;2024-03-23T06:14:37;84498.00;;;-144.30;28.12
7180;BME280;3631;42.152;24.756;2024-03-23T06:17:03;84533.78;;;-144.30;27.77
7180;BME280;3631;42.152;24.756;2024-03-23T06:19:31;84468.19;;;-144.30;27.79
7180;BME280;3631;42.152;24.756;2024-03-23T06:21:57;84368.81;;;-144.30;27.38
7180;BME280;3631;42.152;24.756;2024-03-23T06:24:25;84376.78;;;-144.30;27.15
7180;BME280;3631;42.152;24.756;2024-03-23T06:26:51;84394.66;;;-144.30;27.15
7180;BME280;3631;42.152;24.756;2024-03-23T06:29:18;84321.13;;;-144.30;27.13
7180;BME280;3631;42.152;24.756;2024-03-23T06:31:44;84215.78;;;-144.30;26.91
7180;BME280;3631;42.152;24.756;2024-03-23T06:34:11;84494.03;;;-144.30;27.52
7180;BME280;3631;42.152;24.756;2024-03-23T06:36:36;84503.97;;;-144.30;27.56
7180;BME280;3631;42.152;24.756;2024-03-23T06:39:04;84406.59;;;-144.30;27.20
7180;BME280;3631;42.152;24.756;2024-03-23T06:41:31;84370.81;;;-144.30;26.92
7180;BME280;3631;42.152;24.756;2024-03-23T06:43:58;84342.97;;;-144.30;26.79
7180;BME280;3631;42.152;24.756;2024-03-23T06:46:24;84287.34;;;-144.30;26.48
7180;BME280;3631;42.152;24.756;2024-03-23T06:48:50;84344.97;;;-144.30;26.77
7180;BME280;3631;42.152;24.756;2024-03-23T06:51:16;84283.38;;;-144.30;26.59
7180;BME280;3631;42.152;24.756;2024-03-23T06:53:43;84164.13;;;-144.30;26.14
7180;BME280;3631;42.152;24.756;2024-03-23T06:56:09;84034.97;;;-144.30;25.58
7180;BME280;3631;42.152;24.756;2024-03-23T06:58:38;84027.00;;;-144.30;25.32
7180;BME280;3631;42.152;24.756;2024-03-23T07:01:04;84315.16;;;-144.30;26.49
7180;BME280;3631;42.152;24.756;2024-03-23T07:03:30;84432.41;;;-144.30;26.98
7180;BME280;3631;42.152;24.756;2024-03-23T07:05:58;84454.28;;;-144.30;27.18
7180;BME280;3631;42.152;24.756;2024-03-23T07:08:25;84052.84;;;-144.30;26.90
7180;BME280;3631;42.152;24.756;2024-03-23T07:10:51;84168.09;;;-144.30;26.25
7180;BME280;3631;42.152;24.756;2024-03-23T07:13:17;84193.94;;;-144.30;26.10
7180;BME280;3631;42.152;24.756;2024-03-23T07:15:51;84239.66;;;-144.30;26.14
7180;BME280;3631;42.152;24.756;2024-03-23T07:18:18;84311.19;;;-144.30;26.34
7180;BME280;3631;42.152;24.756;2024-03-23T07:20:52;84243.63;;;-144.30;26.31
7180;BME280;3631;42.152;24.756;2024-03-23T07:23:19;84064.78;;;-144.30;25.44
7180;BME280;3631;42.152;24.756;2024-03-23T07:25:45;83810.41;;;-144.30;24.72
7180;BME280;3631;42.152;24.756;2024-03-23T07:28:12;83621.66;;;-144.30;24.11
7180;BME280;3631;42.152;24.756;2024-03-23T07:30:38;83516.34;;;-144.30;23.63
7180;BME280;3631;42.152;24.756;2024-03-23T07:33:06;83649.47;;;-144.30;23.99
7180;BME280;3631;42.152;24.756;2024-03-23T07:35:32;83828.31;;;-144.30;24.46
7180;BME280;3631;42.152;24.756;2024-03-23T07:37:59;83822.34;;;-144.30;24.57
7180;BME280;3631;42.152;24.756;2024-03-23T07:40:30;83641.53;;;-144.30;24.00
7180;BME280;3631;42.152;24.756;2024-03-23T07:42:57;83498.47;;;-144.30;23.55
7180;BME280;3631;42.152;24.756;2024-03-23T07:45:23;83528.28;;;-144.30;23.65
7180;BME280;3631;42.152;24.756;2024-03-23T07:47:51;83575.97;;;-144.30;23.67
7180;BME280;3631;42.152;24.756;2024-03-23T07:50:19;83361.38;;;-144.30;22.99
7180;BME280;3631;42.152;24.756;2024-03-23T07:52:46;83224.28;;;-144.30;22.85
7180;BME280;3631;42.152;24.756;2024-03-23T07:55:12;83158.75;;;-144.30;22.53
7180;BME280;3631;42.152;24.756;2024-03-23T07:57:39;83065.38;;;-144.30;22.41
7180;BME280;3631;42.152;24.756;2024-03-23T08:00:07;83321.66;;;-144.30;22.84
7180;BME280;3631;42.152;24.756;2024-03-23T08:02:34;83508.41;;;-144.30;22.88
7180;BME280;3631;42.152;24.756;2024-03-23T08:05:00;83671.34;;;-144.30;23.80
7180;BME280;3631;42.152;24.756;2024-03-23T08:07:28;83742.88;;;-144.30;23.96
7180;BME280;3631;42.152;24.756;2024-03-23T08:09:54;83905.81;;;-144.30;24.15
7180;BME280;3631;42.152;24.756;2024-03-23T08:12:21;84116.44;;;-144.30;24.87
7180;BME280;3631;42.152;24.756;2024-03-23T08:14:47;84362.84;;;-144.30;25.70
7180;BME280;3631;42.152;24.756;2024-03-23T08:17:14;84655.00;;;-144.30;27.21
7180;BME280;3631;42.152;24.756;2024-03-23T08:19:40;84812.03;;;-144.30;28.25
7180;BME280;3631;42.152;24.756;2024-03-23T08:22:06;84923.34;;;-144.30;29.12
7180;BME280;3631;42.152;24.756;2024-03-23T08:24:34;85042.59;;;-144.30;29.61
7180;BME280;3631;42.152;24.756;2024-03-23T08:27:01;85076.38;;;-144.30;29.86
7180;BME280;3631;42.152;24.756;2024-03-23T08:29:27;85080.38;;;-144.30;30.06
7180;BME280;3631;42.152;24.756;2024-03-23T08:31:54;85145.97;;;-144.30;30.38
7180;BME280;3631;42.152;24.756;2024-03-23T08:34:20;85181.75;;;-144.30;30.55
7180;BME280;3631;42.152;24.756;2024-03-23T08:36:47;85169.81;;;-144.30;30.94
7180;BME280;3631;42.152;24.756;2024-03-23T08:39:13;85249.34;;;-144.30;31.33
7180;BME280;3631;42.152;24.756;2024-03-23T08:41:41;85229.44;;;-144.30;31.46
7180;BME280;3631;42.152;24.756;2024-03-23T08:44:11;85279.16;;;-144.30;32.06
7180;BME280;3631;42.152;24.756;2024-03-23T08:46:38;85356.69;;;-144.30;31.52
7180;BME280;3631;42.152;24.756;2024-03-23T08:49:05;85330.84;;;-144.30;31.75
7180;BME280;3631;42.152;24.756;2024-03-23T08:51:31;85348.72;;;-144.30;32.29
7180;BME280;3631;42.152;24.756;2024-03-23T08:53:58;85364.63;;;-144.30;32.20
7180;BME280;3631;42.152;24.756;2024-03-23T08:56:24;85173.78;;;-144.30;31.87
7180;BME280;3631;42.152;24.756;2024-03-23T08:58:52;85376.56;;;-144.30;32.46
7180;BME280;3631;42.152;24.756;2024-03-23T09:01:18;85398.41;;;-144.30;32.58
7180;BME280;3631;42.152;24.756;2024-03-23T09:03:45;85394.44;;;-144.30;32.68
7180;BME280;3631;42.152;24.756;2024-03-23T09:06:12;85414.31;;;-144.30;33.03
7180;BME280;3631;42.152;24.756;2024-03-23T09:08:39;85396.44;;;-144.30;32.61
7180;BME280;3631;42.152;24.756;2024-03-23T09:11:06;85372.56;;;-144.30;32.53
7180;BME280;3631;42.152;24.756;2024-03-23T09:13:34;85326.84;;;-144.30;32.24
7180;BME280;3631;42.152;24.756;2024-03-23T09:16:02;85332.81;;;-144.30;32.28
7180;BME280;3631;42.152;24.756;2024-03-23T09:18:31;85392.47;;;-144.30;32.16
7180;BME280;3631;42.152;24.756;2024-03-23T09:20:58;85370.59;;;-144.30;32.66
7180;BME280;3631;42.152;24.756;2024-03-23T09:23:25;85348.72;;;-144.30;32.90
7180;BME280;3631;42.152;24.756;2024-03-23T09:25:50;85352.69;;;-144.30;32.83
7180;BME280;3631;42.152;24.756;2024-03-23T09:28:17;85342.75;;;-144.30;32.63
7180;BME280;3631;42.152;24.756;2024-03-23T09:30:43;85332.81;;;-144.30;32.85
7180;BME280;3631;42.152;24.756;2024-03-23T09:33:12;85400.41;;;-144.30;32.97
7180;BME280;3631;42.152;24.756;2024-03-23T09:35:43;85390.47;;;-144.30;33.49
7180;BME280;3631;42.152;24.756;2024-03-23T09:38:10;85380.53;;;-144.30;33.94
7180;BME280;3631;42.152;24.756;2024-03-23T09:40:40;85384.50;;;-144.30;33.84
7180;BME280;3631;42.152;24.756;2024-03-23T09:43:09;85386.50;;;-144.30;33.85
7180;BME280;3631;42.152;24.756;2024-03-23T09:45:38;85432.22;;;-144.30;34.27
7180;BME280;3631;42.152;24.756;2024-03-23T09:48:06;85394.44;;;-144.30;34.45
7180;BME280;3631;42.152;24.756;2024-03-23T09:50:36;85374.56;;;-144.30;34.40
7180;BME280;3631;42.152;24.756;2024-03-23T09:53:03;85396.44;;;-144.30;34.14
7180;BME280;3631;42.152;24.756;2024-03-23T09:55:29;85388.47;;;-144.30;34.21
7180;BME280;3631;42.152;24.756;2024-03-23T09:57:56;85376.56;;;-144.30;34.08
7180;BME280;3631;42.152;24.756;2024-03-23T10:00:23;85283.13;;;-144.30;34.14
7180;BME280;3631;42.152;24.756;2024-03-23T10:02:51;85352.69;;;-144.30;33.89
7180;BME280;3631;42.152;24.756;2024-03-23T10:05:20;85382.53;;;-144.30;33.69
7180;BME280;3631;42.152;24.756;2024-03-23T10:07:50;85358.66;;;-144.30;33.82
7180;BME280;3631;42.152;24.756;2024-03-23T10:10:16;85342.75;;;-144.30;33.38
7180;BME280;3631;42.152;24.756;2024-03-23T10:12:47;85305.00;;;-144.30;33.29
7180;BME280;3631;42.152;24.756;2024-03-23T10:15:18;85301.00;;;-144.30;33.52
7180;BME280;3631;42.152;24.756;2024-03-23T10:17:44;85326.84;;;-144.30;33.72
7180;BME280;3631;42.152;24.756;2024-03-23T10:20:11;85289.09;;;-144.30;33.85
7180;BME280;3631;42.152;24.756;2024-03-23T10:22:38;85271.19;;;-144.30;32.94
7180;BME280;3631;42.152;24.756;2024-03-23T10:25:10;85316.91;;;-144.30;33.29
7180;BME280;3631;42.152;24.756;2024-03-23T10:27:36;85324.88;;;-144.30;33.39
7180;BME280;3631;42.152;24.756;2024-03-23T10:30:10;85320.91;;;-144.30;33.64
7180;BME280;3631;42.152;24.756;2024-03-23T10:32:37;85299.03;;;-144.30;33.12
7180;BME280;3631;42.152;24.756;2024-03-23T10:35:17;85310.94;;;-144.30;32.97
7180;BME280;3631;42.152;24.756;2024-03-23T10:37:44;85269.22;;;-144.30;32.78
7180;BME280;3631;42.152;24.756;2024-03-23T10:40:13;85255.28;;;-144.30;32.75
7180;BME280;3631;42.152;24.756;2024-03-23T10:42:39;85261.25;;;-144.30;32.71
7180;BME280;3631;42.152;24.756;2024-03-23T10:45:07;85275.16;;;-144.30;33.14
7180;BME280;3631;42.152;24.756;2024-03-23T10:47:35;85277.16;;;-144.30;32.75
7180;BME280;3631;42.152;24.756;2024-03-23T10:50:03;85269.22;;;-144.30;32.70
7180;BME280;3631;42.152;24.756;2024-03-23T10:52:29;85293.06;;;-144.30;32.84
7180;BME280;3631;42.152;24.756;2024-03-23T10:54:56;85245.34;;;-144.30;32.61
7180;BME280;3631;42.152;24.756;2024-03-23T10:57:30;85201.63;;;-144.30;32.46
7180;BME280;3631;42.152;24.756;2024-03-23T10:59:58;85118.13;;;-144.30;31.84
7180;BME280;3631;42.152;24.756;2024-03-23T11:02:25;85197.66;;;-144.30;31.99
7180;BME280;3631;42.152;24.756;2024-03-23T11:04:54;85183.72;;;-144.30;32.07
7180;BME280;3631;42.152;24.756;2024-03-23T11:07:30;85209.56;;;-144.30;32.30
7180;BME280;3631;42.152;24.756;2024-03-23T11:09:57;85229.44;;;-144.30;32.49
7180;BME280;3631;42.152;24.756;2024-03-23T11:12:31;85277.16;;;-144.30;32.12
7180;BME280;3631;42.152;24.756;2024-03-23T11:15:01;85277.16;;;-144.30;32.32
7180;BME280;3631;42.152;24.756;2024-03-23T11:17:27;85722.47;;;-144.30;32.19
7180;BME280;3631;42.152;24.756;2024-03-23T11:19:56;85281.13;;;-144.30;31.81
7180;BME280;3631;42.152;24.756;2024-03-23T11:22:39;85217.53;;;-144.30;31.52
7180;BME280;3631;42.152;24.756;2024-03-23T11:25:18;85261.25;;;-144.30;31.68
7180;BME280;3631;42.152;24.756;2024-03-23T11:27:49;85225.47;;;-144.30;31.35
7180;BME280;3631;42.152;24.756;2024-03-23T11:30:17;85221.50;;;-144.30;32.15
7180;BME280;3631;42.152;24.756;2024-03-23T11:32:44;85221.50;;;-144.30;32.28
7180;BME280;3631;42.152;24.756;2024-03-23T11:35:25;85181.75;;;-144.30;32.41
7180;BME280;3631;42.152;24.756;2024-03-23T11:38:04;85221.50;;;-144.30;32.22
7180;BME280;3631;42.152;24.756;2024-03-23T11:40:31;85225.47;;;-144.30;32.11
7180;BME280;3631;42.152;24.756;2024-03-23T11:43:00;85217.53;;;-144.30;31.88
7180;BME280;3631;42.152;24.756;2024-03-23T11:45:28;85217.53;;;-144.30;31.44
7180;BME280;3631;42.152;24.756;2024-03-23T11:48:08;85213.53;;;-144.30;31.52
7180;BME280;3631;42.152;24.756;2024-03-23T11:50:38;85213.53;;;-144.30;31.75
7180;BME280;3631;42.152;24.756;2024-03-23T11:53:12;85237.41;;;-144.30;31.53
7180;BME280;3631;42.152;24.756;2024-03-23T11:55:43;85245.34;;;-144.30;32.02
7180;BME280;3631;42.152;24.756;2024-03-23T11:58:11;85241.38;;;-144.30;31.79
7180;BME280;3631;42.152;24.756;2024-03-23T12:00:39;85219.50;;;-144.30;31.50
7180;BME280;3631;42.152;24.756;2024-03-23T12:03:05;85221.50;;;-144.30;31.74
7180;BME280;3631;42.152;24.756;2024-03-23T12:05:33;85215.53;;;-144.30;31.48
7180;BME280;3631;42.152;24.756;2024-03-23T12:08:19;85241.38;;;-144.30;31.54
7180;BME280;3631;42.152;24.756;2024-03-23T12:10:48;85251.31;;;-144.30;31.59
7180;BME280;3631;42.152;24.756;2024-03-23T12:13:17;85193.66;;;-144.30;31.54
7180;BME280;3631;42.152;24.756;2024-03-23T12:15:45;85253.31;;;-144.30;31.20
7180;BME280;3631;42.152;24.756;2024-03-23T12:18:11;85239.38;;;-144.30;31.45
7180;BME280;3631;42.152;24.756;2024-03-23T12:20:38;85235.41;;;-144.30;32.17
7180;BME280;3631;42.152;24.756;2024-03-23T12:23:06;85209.56;;;-144.30;31.74
7180;BME280;3631;42.152;24.756;2024-03-23T12:25:33;85209.56;;;-144.30;32.33
7180;BME280;3631;42.152;24.756;2024-03-23T12:27:59;85189.69;;;-144.30;31.48
7180;BME280;3631;42.152;24.756;2024-03-23T12:30:28;85245.34;;;-144.30;32.73
7180;BME280;3631;42.152;24.756;2024-03-23T12:32:54;85165.84;;;-144.30;31.57
7180;BME280;3631;42.152;24.756;2024-03-23T12:35:21;85215.53;;;-144.30;31.27
7180;BME280;3631;42.152;24.756;2024-03-23T12:37:46;85189.69;;;-144.30;31.18
7180;BME280;3631;42.152;24.756;2024-03-23T12:40:14;85227.47;;;-144.30;31.18
7180;BME280;3631;42.152;24.756;2024-03-23T12:42:40;85169.81;;;-144.30;31.27
7180;BME280;3631;42.152;24.756;2024-03-23T12:45:08;85205.59;;;-144.30;30.81
7180;BME280;3631;42.152;24.756;2024-03-23T12:47:35;85157.88;;;-144.30;30.64
7180;BME280;3631;42.152;24.756;2024-03-23T12:50:02;85227.47;;;-144.30;30.56
7180;BME280;3631;42.152;24.756;2024-03-23T12:52:28;85173.78;;;-144.30;30.69
7180;BME280;3631;42.152;24.756;2024-03-23T12:54:55;85205.59;;;-144.30;30.86
7180;BME280;3631;42.152;24.756;2024-03-23T12:57:23;85193.66;;;-144.30;31.27
7180;BME280;3631;42.152;24.756;2024-03-23T12:59:50;85211.56;;;-144.30;31.47
7180;BME280;3631;42.152;24.756;2024-03-23T13:02:18;85189.69;;;-144.30;31.34
7180;BME280;3631;42.152;24.756;2024-03-23T13:04:49;85187.69;;;-144.30;31.20
7180;BME280;3631;42.152;24.756;2024-03-23T13:07:15;85157.88;;;-144.30;30.43
7180;BME280;3631;42.152;24.756;2024-03-23T13:09:42;85173.78;;;-144.30;30.81
7180;BME280;3631;42.152;24.756;2024-03-23T13:12:08;85203.59;;;-144.30;31.41
7180;BME280;3631;42.152;24.756;2024-03-23T13:14:36;85153.91;;;-144.30;31.06
7180;BME280;3631;42.152;24.756;2024-03-23T13:17:02;85193.66;;;-144.30;30.70
7180;BME280;3631;42.152;24.756;2024-03-23T13:19:29;85145.97;;;-144.30;30.88
7180;BME280;3631;42.152;24.756;2024-03-23T13:21:58;85138.00;;;-144.30;30.94
7180;BME280;3631;42.152;24.756;2024-03-23T13:24:25;85161.88;;;-144.30;29.95
7180;BME280;3631;42.152;24.756;2024-03-23T13:26:52;85193.66;;;-144.30;29.63
7180;BME280;3631;42.152;24.756;2024-03-23T13:29:19;85173.78;;;-144.30;29.58
7180;BME280;3631;42.152;24.756;2024-03-23T13:31:46;85175.78;;;-144.30;29.36
7180;BME280;3631;42.152;24.756;2024-03-23T13:34:13;85177.75;;;-144.30;29.26
7180;BME280;3631;42.152;24.756;2024-03-23T13:36:40;85201.63;;;-144.30;29.90
7180;BME280;3631;42.152;24.756;2024-03-23T13:39:10;85205.59;;;-144.30;29.80
7180;BME280;3631;42.152;24.756;2024-03-23T13:41:38;85122.09;;;-144.30;29.75